sensor_id;sensor_type;location;lat;lon;timestamp;P1;durP1;ratioP1;P2;durP2;ratioP2
9106;SDS011;4589;48.690;8.952;2023-07-29T00:02:17;11.70;;;4.70;;
9106;SDS011;4589;48.690;8.952;2023-07-29T00:04:43;10.07;;;4.80;;
9106;SDS011;4589;48.690;8.952;2023-07-29T00:07:08;6.83;;;4.10;;
9106;SDS011;4589;48.690;8.952;2023-07-29T00:09:34;9.23;;;4.50;;
9106;SDS011;4589;48.690;8.952;2023-07-29T00:12:00;7.83;;;4.33;;
9106;SDS011;4589;48.690;8.952;2023-07-29T00:14:26;8.00;;;4.37;;
9106;SDS011;4589;48.690;8.952;2023-07-29T00:16:51;8.50;;;4.50;;
9106;SDS011;4589;48.690;8.952;2023-07-29T00:19:17;7.17;;;4.37;;
9106;SDS011;4589;48.690;8.952;2023-07-29T00:21:45;7.50;;;4.97;;
9106;SDS011;4589;48.690;8.952;2023-07-29T00:24:11;9.33;;;4.27;;
9106;SDS011;4589;48.690;8.952;2023-07-29T00:26:37;9.17;;;4.60;;
9106;SDS011;4589;48.690;8.952;2023-07-29T00:29:03;13.13;;;5.27;;
9106;SDS011;4589;48.690;8.952;2023-07-29T00:31:29;7.80;;;3.90;;
9106;SDS011;4589;48.690;8.952;2023-07-29T00:33:54;5.17;;;3.93;;
9106;SDS011;4589;48.690;8.952;2023-07-29T00:36:20;13.33;;;4.90;;
9106;SDS011;4589;48.690;8.952;2023-07-29T00:38:46;9.50;;;5.00;;
9106;SDS011;4589;48.690;8.952;2023-07-29T00:41:11;6.90;;;4.37;;
9106;SDS011;4589;48.690;8.952;2023-07-29T00:43:38;10.40;;;5.50;;
9106;SDS011;4589;48.690;8.952;2023-07-29T00:46:04;15.50;;;4.97;;
9106;SDS011;4589;48.690;8.952;2023-07-29T00:48:30;10.13;;;5.00;;
9106;SDS011;4589;48.690;8.952;2023-07-29T00:50:55;10.20;;;4.53;;
9106;SDS011;4589;48.690;8.952;2023-07-29T00:53:21;7.90;;;5.00;;
9106;SDS011;4589;48.690;8.952;2023-07-29T00:55:47;8.00;;;4.60;;
9106;SDS011;4589;48.690;8.952;2023-07-29T00:58:13;14.43;;;5.47;;
9106;SDS011;4589;48.690;8.952;2023-07-29T01:00:39;8.90;;;4.30;;
9106;SDS011;4589;48.690;8.952;2023-07-29T01:03:06;14.20;;;5.67;;
9106;SDS011;4589;48.690;8.952;2023-07-29T01:05:34;4.43;;;3.97;;
9106;SDS011;4589;48.690;8.952;2023-07-29T01:08:19;5.10;;;4.17;;
9106;SDS011;4589;48.690;8.952;2023-07-29T01:11:01;6.60;;;4.23;;
9106;SDS011;4589;48.690;8.952;2023-07-29T01:13:58;7.30;;;4.40;;
9106;SDS011;4589;48.690;8.952;2023-07-29T01:16:31;6.90;;;4.60;;
9106;SDS011;4589;48.690;8.952;2023-07-29T01:19:06;11.07;;;4.60;;
9106;SDS011;4589;48.690;8.952;2023-07-29T01:21:33;7.90;;;5.10;;
9106;SDS011;4589;48.690;8.952;2023-07-29T01:24:00;9.70;;;5.13;;
9106;SDS011;4589;48.690;8.952;2023-07-29T01:26:26;5.80;;;3.77;;
9106;SDS011;4589;48.690;8.952;2023-07-29T01:28:53;7.10;;;4.70;;
9106;SDS011;4589;48.690;8.952;2023-07-29T01:31:28;11.03;;;4.73;;
9106;SDS011;4589;48.690;8.952;2023-07-29T01:34:04;6.53;;;5.00;;
9106;SDS011;4589;48.690;8.952;2023-07-29T01:36:37;9.63;;;4.63;;
9106;SDS011;4589;48.690;8.952;2023-07-29T01:39:06;9.60;;;5.07;;
9106;SDS011;4589;48.690;8.952;2023-07-29T01:41:34;6.77;;;4.67;;
9106;SDS011;4589;48.690;8.952;2023-07-29T01:44:00;10.73;;;4.90;;
9106;SDS011;4589;48.690;8.952;2023-07-29T01:46:26;9.43;;;5.07;;
9106;SDS011;4589;48.690;8.952;2023-07-29T01:48:52;15.50;;;6.53;;
9106;SDS011;4589;48.690;8.952;2023-07-29T01:51:18;10.87;;;5.10;;
9106;SDS011;4589;48.690;8.952;2023-07-29T01:53:45;11.03;;;4.47;;
9106;SDS011;4589;48.690;8.952;2023-07-29T01:56:11;14.17;;;4.97;;
9106;SDS011;4589;48.690;8.952;2023-07-29T01:58:37;13.73;;;5.17;;
9106;SDS011;4589;48.690;8.952;2023-07-29T02:01:03;9.20;;;5.37;;
9106;SDS011;4589;48.690;8.952;2023-07-29T02:03:29;8.57;;;5.33;;
9106;SDS011;4589;48.690;8.952;2023-07-29T02:05:55;9.67;;;4.83;;
9106;SDS011;4589;48.690;8.952;2023-07-29T02:08:21;9.90;;;4.87;;
9106;SDS011;4589;48.690;8.952;2023-07-29T02:10:46;8.97;;;4.90;;
9106;SDS011;4589;48.690;8.952;2023-07-29T02:13:13;11.40;;;5.13;;
9106;SDS011;4589;48.690;8.952;2023-07-29T02:15:39;18.07;;;5.77;;
9106;SDS011;4589;48.690;8.952;2023-07-29T02:18:05;9.87;;;4.90;;
9106;SDS011;4589;48.690;8.952;2023-07-29T02:20:32;8.77;;;5.77;;
9106;SDS011;4589;48.690;8.952;2023-07-29T02:22:58;10.87;;;5.30;;
9106;SDS011;4589;48.690;8.952;2023-07-29T02:25:24;12.73;;;5.53;;
9106;SDS011;4589;48.690;8.952;2023-07-29T02:27:50;17.70;;;5.37;;
9106;SDS011;4589;48.690;8.952;2023-07-29T02:30:16;14.03;;;5.73;;
9106;SDS011;4589;48.690;8.952;2023-07-29T02:32:42;8.03;;;4.40;;
9106;SDS011;4589;48.690;8.952;2023-07-29T02:35:07;8.90;;;4.77;;
9106;SDS011;4589;48.690;8.952;2023-07-29T02:37:33;12.20;;;5.87;;
9106;SDS011;4589;48.690;8.952;2023-07-29T02:39:59;8.20;;;5.80;;
9106;SDS011;4589;48.690;8.952;2023-07-29T02:42:25;17.97;;;6.10;;
9106;SDS011;4589;48.690;8.952;2023-07-29T02:44:51;9.13;;;5.50;;
9106;SDS011;4589;48.690;8.952;2023-07-29T02:47:17;6.20;;;5.13;;
9106;SDS011;4589;48.690;8.952;2023-07-29T02:49:43;10.93;;;5.50;;
9106;SDS011;4589;48.690;8.952;2023-07-29T02:52:09;7.40;;;5.27;;
9106;SDS011;4589;48.690;8.952;2023-07-29T02:54:35;9.80;;;5.33;;
9106;SDS011;4589;48.690;8.952;2023-07-29T02:57:00;13.20;;;5.70;;
9106;SDS011;4589;48.690;8.952;2023-07-29T02:59:26;10.37;;;5.23;;
9106;SDS011;4589;48.690;8.952;2023-07-29T03:01:52;12.60;;;5.13;;
9106;SDS011;4589;48.690;8.952;2023-07-29T03:04:18;7.40;;;5.00;;
9106;SDS011;4589;48.690;8.952;2023-07-29T03:06:44;16.33;;;5.80;;
9106;SDS011;4589;48.690;8.952;2023-07-29T03:09:10;10.83;;;5.87;;
9106;SDS011;4589;48.690;8.952;2023-07-29T03:11:36;11.67;;;5.77;;
9106;SDS011;4589;48.690;8.952;2023-07-29T03:14:02;13.03;;;5.70;;
9106;SDS011;4589;48.690;8.952;2023-07-29T03:16:28;9.77;;;5.73;;
9106;SDS011;4589;48.690;8.952;2023-07-29T03:18:53;12.30;;;5.80;;
9106;SDS011;4589;48.690;8.952;2023-07-29T03:21:19;15.00;;;7.73;;
9106;SDS011;4589;48.690;8.952;2023-07-29T03:23:45;10.50;;;6.20;;
9106;SDS011;4589;48.690;8.952;2023-07-29T03:26:10;15.83;;;5.87;;
9106;SDS011;4589;48.690;8.952;2023-07-29T03:28:38;10.70;;;5.67;;
9106;SDS011;4589;48.690;8.952;2023-07-29T03:31:05;10.73;;;5.53;;
9106;SDS011;4589;48.690;8.952;2023-07-29T03:33:31;15.63;;;5.40;;
9106;SDS011;4589;48.690;8.952;2023-07-29T03:35:57;13.63;;;5.63;;
9106;SDS011;4589;48.690;8.952;2023-07-29T03:38:23;10.93;;;5.00;;
9106;SDS011;4589;48.690;8.952;2023-07-29T03:40:50;7.67;;;4.37;;
9106;SDS011;4589;48.690;8.952;2023-07-29T03:43:15;11.23;;;5.40;;
9106;SDS011;4589;48.690;8.952;2023-07-29T03:45:41;9.50;;;5.30;;
9106;SDS011;4589;48.690;8.952;2023-07-29T03:48:07;14.87;;;5.33;;
9106;SDS011;4589;48.690;8.952;2023-07-29T03:50:34;10.43;;;5.30;;
9106;SDS011;4589;48.690;8.952;2023-07-29T03:53:01;12.50;;;5.50;;
9106;SDS011;4589;48.690;8.952;2023-07-29T03:55:27;8.67;;;5.20;;
9106;SDS011;4589;48.690;8.952;2023-07-29T03:57:57;9.37;;;4.80;;
9106;SDS011;4589;48.690;8.952;2023-07-29T04:00:23;11.23;;;5.23;;
9106;SDS011;4589;48.690;8.952;2023-07-29T04:02:49;17.07;;;5.80;;
9106;SDS011;4589;48.690;8.952;2023-07-29T04:05:15;10.77;;;4.70;;
9106;SDS011;4589;48.690;8.952;2023-07-29T04:07:41;13.37;;;5.80;;
9106;SDS011;4589;48.690;8.952;2023-07-29T04:10:08;9.23;;;5.90;;
9106;SDS011;4589;48.690;8.952;2023-07-29T04:12:34;15.47;;;5.77;;
9106;SDS011;4589;48.690;8.952;2023-07-29T04:14:59;9.47;;;5.43;;
9106;SDS011;4589;48.690;8.952;2023-07-29T04:17:25;10.43;;;5.80;;
9106;SDS011;4589;48.690;8.952;2023-07-29T04:19:51;14.93;;;5.13;;
9106;SDS011;4589;48.690;8.952;2023-07-29T04:22:17;14.27;;;5.93;;
9106;SDS011;4589;48.690;8.952;2023-07-29T04:24:43;12.53;;;5.53;;
9106;SDS011;4589;48.690;8.952;2023-07-29T04:27:08;10.70;;;5.87;;
9106;SDS011;4589;48.690;8.952;2023-07-29T04:29:35;6.77;;;5.43;;
9106;SDS011;4589;48.690;8.952;2023-07-29T04:32:04;13.10;;;5.70;;
9106;SDS011;4589;48.690;8.952;2023-07-29T04:34:31;8.77;;;5.97;;
9106;SDS011;4589;48.690;8.952;2023-07-29T04:36:57;8.03;;;5.70;;
9106;SDS011;4589;48.690;8.952;2023-07-29T04:39:22;12.33;;;5.67;;
9106;SDS011;4589;48.690;8.952;2023-07-29T04:41:48;11.50;;;5.80;;
9106;SDS011;4589;48.690;8.952;2023-07-29T04:44:14;8.90;;;4.97;;
9106;SDS011;4589;48.690;8.952;2023-07-29T04:46:40;12.47;;;4.90;;
9106;SDS011;4589;48.690;8.952;2023-07-29T04:49:06;0.90;;;0.60;;
9106;SDS011;4589;48.690;8.952;2023-07-29T04:51:32;0.90;;;0.60;;
9106;SDS011;4589;48.690;8.952;2023-07-29T04:53:58;0.90;;;0.60;;
9106;SDS011;4589;48.690;8.952;2023-07-29T04:56:24;0.90;;;0.60;;
9106;SDS011;4589;48.690;8.952;2023-07-29T04:58:50;0.90;;;0.60;;
9106;SDS011;4589;48.690;8.952;2023-07-29T05:01:16;0.90;;;0.60;;
9106;SDS011;4589;48.690;8.952;2023-07-29T05:03:41;0.90;;;0.60;;
9106;SDS011;4589;48.690;8.952;2023-07-29T05:06:07;0.90;;;0.60;;
9106;SDS011;4589;48.690;8.952;2023-07-29T05:08:33;0.90;;;0.60;;
9106;SDS011;4589;48.690;8.952;2023-07-29T05:10:59;0.90;;;0.60;;
9106;SDS011;4589;48.690;8.952;2023-07-29T05:13:25;0.90;;;0.60;;
9106;SDS011;4589;48.690;8.952;2023-07-29T05:15:51;0.90;;;0.70;;
9106;SDS011;4589;48.690;8.952;2023-07-29T05:18:17;0.90;;;0.60;;
9106;SDS011;4589;48.690;8.952;2023-07-29T05:20:43;0.90;;;0.60;;
9106;SDS011;4589;48.690;8.952;2023-07-29T05:23:09;0.90;;;0.60;;
9106;SDS011;4589;48.690;8.952;2023-07-29T05:25:35;0.90;;;0.60;;
9106;SDS011;4589;48.690;8.952;2023-07-29T05:28:01;0.90;;;0.60;;
9106;SDS011;4589;48.690;8.952;2023-07-29T05:30:27;0.90;;;0.80;;
9106;SDS011;4589;48.690;8.952;2023-07-29T05:32:56;0.90;;;0.60;;
9106;SDS011;4589;48.690;8.952;2023-07-29T05:35:22;1.57;;;1.37;;
9106;SDS011;4589;48.690;8.952;2023-07-29T05:37:48;0.90;;;0.60;;
9106;SDS011;4589;48.690;8.952;2023-07-29T05:40:13;0.90;;;0.60;;
9106;SDS011;4589;48.690;8.952;2023-07-29T05:42:39;0.90;;;0.60;;
9106;SDS011;4589;48.690;8.952;2023-07-29T05:45:05;0.90;;;0.60;;
9106;SDS011;4589;48.690;8.952;2023-07-29T05:47:31;0.90;;;0.60;;
9106;SDS011;4589;48.690;8.952;2023-07-29T05:49:57;0.90;;;0.60;;
9106;SDS011;4589;48.690;8.952;2023-07-29T05:52:23;0.90;;;0.60;;
9106;SDS011;4589;48.690;8.952;2023-07-29T05:54:49;0.87;;;0.70;;
9106;SDS011;4589;48.690;8.952;2023-07-29T05:57:15;0.90;;;0.60;;
9106;SDS011;4589;48.690;8.952;2023-07-29T05:59:41;0.90;;;0.60;;
9106;SDS011;4589;48.690;8.952;2023-07-29T06:02:06;0.90;;;0.60;;
9106;SDS011;4589;48.690;8.952;2023-07-29T06:04:32;0.90;;;0.60;;
9106;SDS011;4589;48.690;8.952;2023-07-29T06:06:58;0.90;;;0.60;;
9106;SDS011;4589;48.690;8.952;2023-07-29T06:09:24;0.90;;;0.60;;
9106;SDS011;4589;48.690;8.952;2023-07-29T06:11:52;0.90;;;0.60;;
9106;SDS011;4589;48.690;8.952;2023-07-29T06:14:18;0.90;;;0.60;;
9106;SDS011;4589;48.690;8.952;2023-07-29T06:16:44;0.90;;;0.60;;
9106;SDS011;4589;48.690;8.952;2023-07-29T06:19:10;0.90;;;0.60;;
9106;SDS011;4589;48.690;8.952;2023-07-29T06:21:36;1.00;;;0.80;;
9106;SDS011;4589;48.690;8.952;2023-07-29T06:24:02;0.90;;;0.60;;
9106;SDS011;4589;48.690;8.952;2023-07-29T06:26:28;0.90;;;0.60;;
9106;SDS011;4589;48.690;8.952;2023-07-29T06:28:53;0.90;;;0.60;;
9106;SDS011;4589;48.690;8.952;2023-07-29T06:31:19;0.90;;;0.60;;
9106;SDS011;4589;48.690;8.952;2023-07-29T06:33:45;1.00;;;0.90;;
9106;SDS011;4589;48.690;8.952;2023-07-29T06:36:11;0.90;;;0.60;;
9106;SDS011;4589;48.690;8.952;2023-07-29T06:38:37;0.90;;;0.60;;
9106;SDS011;4589;48.690;8.952;2023-07-29T06:41:04;0.90;;;0.60;;
9106;SDS011;4589;48.690;8.952;2023-07-29T06:43:30;0.90;;;0.80;;
9106;SDS011;4589;48.690;8.952;2023-07-29T06:45:56;0.90;;;0.60;;
9106;SDS011;4589;48.690;8.952;2023-07-29T06:48:22;0.90;;;0.60;;
9106;SDS011;4589;48.690;8.952;2023-07-29T06:50:48;0.83;;;0.60;;
9106;SDS011;4589;48.690;8.952;2023-07-29T06:53:15;0.90;;;0.60;;
9106;SDS011;4589;48.690;8.952;2023-07-29T06:55:41;0.90;;;0.60;;
9106;SDS011;4589;48.690;8.952;2023-07-29T06:58:07;0.90;;;0.60;;
9106;SDS011;4589;48.690;8.952;2023-07-29T07:00:33;0.90;;;0.60;;
9106;SDS011;4589;48.690;8.952;2023-07-29T07:02:59;0.90;;;0.60;;
9106;SDS011;4589;48.690;8.952;2023-07-29T07:05:25;0.90;;;0.60;;
9106;SDS011;4589;48.690;8.952;2023-07-29T07:07:50;1.00;;;0.87;;
9106;SDS011;4589;48.690;8.952;2023-07-29T07:10:16;0.90;;;0.60;;
9106;SDS011;4589;48.690;8.952;2023-07-29T07:12:42;0.90;;;0.63;;
9106;SDS011;4589;48.690;8.952;2023-07-29T07:15:08;0.90;;;0.60;;
9106;SDS011;4589;48.690;8.952;2023-07-29T07:17:34;0.90;;;0.60;;
9106;SDS011;4589;48.690;8.952;2023-07-29T07:19:59;0.90;;;0.60;;
9106;SDS011;4589;48.690;8.952;2023-07-29T07:22:25;0.90;;;0.60;;
9106;SDS011;4589;48.690;8.952;2023-07-29T07:24:51;0.90;;;0.60;;
9106;SDS011;4589;48.690;8.952;2023-07-29T07:27:17;0.90;;;0.60;;
9106;SDS011;4589;48.690;8.952;2023-07-29T07:29:42;0.90;;;0.60;;
9106;SDS011;4589;48.690;8.952;2023-07-29T07:32:08;0.90;;;0.60;;
9106;SDS011;4589;48.690;8.952;2023-07-29T07:34:34;0.90;;;0.60;;
9106;SDS011;4589;48.690;8.952;2023-07-29T07:37:00;0.90;;;0.60;;
9106;SDS011;4589;48.690;8.952;2023-07-29T07:39:26;0.90;;;0.60;;
9106;SDS011;4589;48.690;8.952;2023-07-29T07:41:52;0.90;;;0.60;;
9106;SDS011;4589;48.690;8.952;2023-07-29T07:44:18;0.90;;;0.60;;
9106;SDS011;4589;48.690;8.952;2023-07-29T07:46:44;0.90;;;0.60;;
9106;SDS011;4589;48.690;8.952;2023-07-29T07:49:10;0.90;;;0.60;;
9106;SDS011;4589;48.690;8.952;2023-07-29T07:51:37;0.90;;;0.60;;
9106;SDS011;4589;48.690;8.952;2023-07-29T07:54:04;0.90;;;0.60;;
9106;SDS011;4589;48.690;8.952;2023-07-29T07:56:29;0.90;;;0.70;;
9106;SDS011;4589;48.690;8.952;2023-07-29T07:58:55;0.90;;;0.60;;
9106;SDS011;4589;48.690;8.952;2023-07-29T08:01:21;0.90;;;0.60;;
9106;SDS011;4589;48.690;8.952;2023-07-29T08:03:47;0.90;;;0.60;;
9106;SDS011;4589;48.690;8.952;2023-07-29T08:06:13;0.90;;;0.60;;
9106;SDS011;4589;48.690;8.952;2023-07-29T08:08:39;0.90;;;0.60;;
9106;SDS011;4589;48.690;8.952;2023-07-29T08:11:05;0.90;;;0.70;;
9106;SDS011;4589;48.690;8.952;2023-07-29T08:13:30;0.90;;;0.60;;
9106;SDS011;4589;48.690;8.952;2023-07-29T08:15:56;0.90;;;0.60;;
9106;SDS011;4589;48.690;8.952;2023-07-29T08:18:22;0.90;;;0.60;;
9106;SDS011;4589;48.690;8.952;2023-07-29T08:20:54;0.90;;;0.60;;
9106;SDS011;4589;48.690;8.952;2023-07-29T08:23:23;0.90;;;0.60;;
9106;SDS011;4589;48.690;8.952;2023-07-29T08:25:56;0.90;;;0.60;;
9106;SDS011;4589;48.690;8.952;2023-07-29T08:28:33;0.90;;;0.60;;
9106;SDS011;4589;48.690;8.952;2023-07-29T08:31:01;0.90;;;0.60;;
9106;SDS011;4589;48.690;8.952;2023-07-29T08:33:27;0.90;;;0.60;;
9106;SDS011;4589;48.690;8.952;2023-07-29T08:35:55;0.90;;;0.60;;
9106;SDS011;4589;48.690;8.952;2023-07-29T08:38:21;0.90;;;0.60;;
9106;SDS011;4589;48.690;8.952;2023-07-29T08:40:52;0.90;;;0.60;;
9106;SDS011;4589;48.690;8.952;2023-07-29T08:43:38;0.90;;;0.60;;
9106;SDS011;4589;48.690;8.952;2023-07-29T08:46:08;0.90;;;0.60;;
9106;SDS011;4589;48.690;8.952;2023-07-29T08:48:41;0.90;;;0.60;;
9106;SDS011;4589;48.690;8.952;2023-07-29T08:51:07;0.90;;;0.60;;
9106;SDS011;4589;48.690;8.952;2023-07-29T08:53:34;0.90;;;0.60;;
9106;SDS011;4589;48.690;8.952;2023-07-29T08:56:00;0.90;;;0.60;;
9106;SDS011;4589;48.690;8.952;2023-07-29T08:58:26;0.90;;;0.60;;
9106;SDS011;4589;48.690;8.952;2023-07-29T09:00:52;0.90;;;0.70;;
9106;SDS011;4589;48.690;8.952;2023-07-29T09:03:19;0.90;;;0.60;;
9106;SDS011;4589;48.690;8.952;2023-07-29T09:05:45;0.90;;;0.60;;
9106;SDS011;4589;48.690;8.952;2023-07-29T09:08:11;0.90;;;0.60;;
9106;SDS011;4589;48.690;8.952;2023-07-29T09:10:37;1.53;;;1.43;;
9106;SDS011;4589;48.690;8.952;2023-07-29T09:13:06;0.90;;;0.60;;
9106;SDS011;4589;48.690;8.952;2023-07-29T09:15:33;0.90;;;0.60;;
9106;SDS011;4589;48.690;8.952;2023-07-29T09:18:08;0.90;;;0.60;;
9106;SDS011;4589;48.690;8.952;2023-07-29T09:20:39;0.90;;;0.60;;
9106;SDS011;4589;48.690;8.952;2023-07-29T09:23:07;0.90;;;0.60;;
9106;SDS011;4589;48.690;8.952;2023-07-29T09:25:34;0.90;;;0.60;;
9106;SDS011;4589;48.690;8.952;2023-07-29T09:28:00;1.33;;;1.13;;
9106;SDS011;4589;48.690;8.952;2023-07-29T09:30:32;0.90;;;0.60;;
9106;SDS011;4589;48.690;8.952;2023-07-29T09:32:58;0.90;;;0.60;;
9106;SDS011;4589;48.690;8.952;2023-07-29T09:35:24;0.90;;;0.60;;
9106;SDS011;4589;48.690;8.952;2023-07-29T09:37:52;0.90;;;0.60;;
9106;SDS011;4589;48.690;8.952;2023-07-29T09:40:18;0.90;;;0.60;;
9106;SDS011;4589;48.690;8.952;2023-07-29T09:42:47;0.90;;;0.60;;
9106;SDS011;4589;48.690;8.952;2023-07-29T09:45:25;2.07;;;1.87;;
9106;SDS011;4589;48.690;8.952;2023-07-29T09:47:52;1.77;;;1.67;;
9106;SDS011;4589;48.690;8.952;2023-07-29T09:50:18;2.60;;;1.60;;
9106;SDS011;4589;48.690;8.952;2023-07-29T09:52:48;2.43;;;2.17;;
9106;SDS011;4589;48.690;8.952;2023-07-29T09:55:16;3.47;;;1.80;;
9106;SDS011;4589;48.690;8.952;2023-07-29T09:57:43;2.03;;;1.60;;
9106;SDS011;4589;48.690;8.952;2023-07-29T10:00:10;2.00;;;1.63;;
9106;SDS011;4589;48.690;8.952;2023-07-29T10:02:40;1.53;;;1.43;;
9106;SDS011;4589;48.690;8.952;2023-07-29T10:05:07;3.10;;;1.70;;
9106;SDS011;4589;48.690;8.952;2023-07-29T10:07:37;2.70;;;1.93;;
9106;SDS011;4589;48.690;8.952;2023-07-29T10:10:03;2.53;;;1.80;;
9106;SDS011;4589;48.690;8.952;2023-07-29T10:12:30;2.30;;;1.50;;
9106;SDS011;4589;48.690;8.952;2023-07-29T10:15:04;2.80;;;2.10;;
9106;SDS011;4589;48.690;8.952;2023-07-29T10:17:33;2.83;;;1.80;;
9106;SDS011;4589;48.690;8.952;2023-07-29T10:20:00;2.63;;;2.00;;
9106;SDS011;4589;48.690;8.952;2023-07-29T10:22:28;2.30;;;2.10;;
9106;SDS011;4589;48.690;8.952;2023-07-29T10:25:03;1.80;;;1.50;;
9106;SDS011;4589;48.690;8.952;2023-07-29T10:27:31;2.30;;;2.10;;
9106;SDS011;4589;48.690;8.952;2023-07-29T10:30:20;2.20;;;2.00;;
9106;SDS011;4589;48.690;8.952;2023-07-29T10:32:46;1.90;;;1.70;;
9106;SDS011;4589;48.690;8.952;2023-07-29T10:35:13;2.10;;;1.90;;
9106;SDS011;4589;48.690;8.952;2023-07-29T10:37:40;2.93;;;2.03;;
9106;SDS011;4589;48.690;8.952;2023-07-29T10:40:07;2.00;;;1.63;;
9106;SDS011;4589;48.690;8.952;2023-07-29T10:42:35;1.70;;;1.60;;
9106;SDS011;4589;48.690;8.952;2023-07-29T10:45:17;2.10;;;1.90;;
9106;SDS011;4589;48.690;8.952;2023-07-29T10:47:45;1.80;;;1.53;;
9106;SDS011;4589;48.690;8.952;2023-07-29T10:50:19;1.73;;;1.63;;
9106;SDS011;4589;48.690;8.952;2023-07-29T10:52:50;3.60;;;2.00;;
9106;SDS011;4589;48.690;8.952;2023-07-29T10:55:24;2.53;;;2.30;;
9106;SDS011;4589;48.690;8.952;2023-07-29T10:57:52;2.27;;;2.07;;
9106;SDS011;4589;48.690;8.952;2023-07-29T11:00:19;2.40;;;2.20;;
9106;SDS011;4589;48.690;8.952;2023-07-29T11:03:06;1.93;;;1.83;;
9106;SDS011;4589;48.690;8.952;2023-07-29T11:05:51;2.53;;;1.70;;
9106;SDS011;4589;48.690;8.952;2023-07-29T11:08:22;2.33;;;2.13;;
9106;SDS011;4589;48.690;8.952;2023-07-29T11:11:08;2.50;;;1.90;;
9106;SDS011;4589;48.690;8.952;2023-07-29T11:13:37;2.40;;;2.20;;
9106;SDS011;4589;48.690;8.952;2023-07-29T11:16:04;2.13;;;1.93;;
9106;SDS011;4589;48.690;8.952;2023-07-29T11:18:34;2.43;;;2.23;;
9106;SDS011;4589;48.690;8.952;2023-07-29T11:21:01;2.43;;;2.23;;
9106;SDS011;4589;48.690;8.952;2023-07-29T11:23:29;2.20;;;2.00;;
9106;SDS011;4589;48.690;8.952;2023-07-29T11:25:55;2.67;;;2.47;;
9106;SDS011;4589;48.690;8.952;2023-07-29T11:28:21;1.90;;;1.70;;
9106;SDS011;4589;48.690;8.952;2023-07-29T11:30:49;1.97;;;1.87;;
9106;SDS011;4589;48.690;8.952;2023-07-29T11:33:17;3.07;;;2.07;;
9106;SDS011;4589;48.690;8.952;2023-07-29T11:35:44;2.10;;;1.77;;
9106;SDS011;4589;48.690;8.952;2023-07-29T11:38:14;1.83;;;1.73;;
9106;SDS011;4589;48.690;8.952;2023-07-29T11:40:40;3.00;;;2.07;;
9106;SDS011;4589;48.690;8.952;2023-07-29T11:43:06;2.90;;;2.13;;
9106;SDS011;4589;48.690;8.952;2023-07-29T11:45:32;3.10;;;1.93;;
9106;SDS011;4589;48.690;8.952;2023-07-29T11:48:00;2.63;;;2.40;;
9106;SDS011;4589;48.690;8.952;2023-07-29T11:50:26;2.90;;;2.00;;
9106;SDS011;4589;48.690;8.952;2023-07-29T11:52:52;4.43;;;2.00;;
9106;SDS011;4589;48.690;8.952;2023-07-29T11:55:17;3.40;;;2.10;;
9106;SDS011;4589;48.690;8.952;2023-07-29T11:57:44;2.87;;;1.93;;
9106;SDS011;4589;48.690;8.952;2023-07-29T12:00:13;2.40;;;1.73;;
9106;SDS011;4589;48.690;8.952;2023-07-29T12:02:40;3.30;;;2.03;;
9106;SDS011;4589;48.690;8.952;2023-07-29T12:05:09;2.67;;;2.37;;
9106;SDS011;4589;48.690;8.952;2023-07-29T12:07:35;2.60;;;2.00;;
9106;SDS011;4589;48.690;8.952;2023-07-29T12:10:03;2.60;;;2.10;;
9106;SDS011;4589;48.690;8.952;2023-07-29T12:12:29;2.53;;;2.33;;
9106;SDS011;4589;48.690;8.952;2023-07-29T12:14:55;2.47;;;2.17;;
9106;SDS011;4589;48.690;8.952;2023-07-29T12:17:20;1.97;;;1.87;;
9106;SDS011;4589;48.690;8.952;2023-07-29T12:19:46;1.80;;;1.70;;
9106;SDS011;4589;48.690;8.952;2023-07-29T12:22:12;2.30;;;2.10;;
9106;SDS011;4589;48.690;8.952;2023-07-29T12:24:42;2.10;;;1.90;;
9106;SDS011;4589;48.690;8.952;2023-07-29T12:27:12;3.63;;;2.07;;
9106;SDS011;4589;48.690;8.952;2023-07-29T12:29:42;2.40;;;2.20;;
9106;SDS011;4589;48.690;8.952;2023-07-29T12:32:08;2.07;;;1.97;;
9106;SDS011;4589;48.690;8.952;2023-07-29T12:34:35;1.90;;;1.80;;
9106;SDS011;4589;48.690;8.952;2023-07-29T12:37:04;2.20;;;1.97;;
9106;SDS011;4589;48.690;8.952;2023-07-29T12:39:31;3.20;;;2.03;;
9106;SDS011;4589;48.690;8.952;2023-07-29T12:41:59;2.13;;;2.00;;
9106;SDS011;4589;48.690;8.952;2023-07-29T12:44:26;1.80;;;1.70;;
9106;SDS011;4589;48.690;8.952;2023-07-29T12:46:54;1.73;;;1.63;;
9106;SDS011;4589;48.690;8.952;2023-07-29T12:49:20;1.90;;;1.80;;
9106;SDS011;4589;48.690;8.952;2023-07-29T12:51:47;2.53;;;1.97;;
9106;SDS011;4589;48.690;8.952;2023-07-29T12:54:13;2.70;;;1.80;;
9106;SDS011;4589;48.690;8.952;2023-07-29T12:56:38;2.30;;;2.10;;
9106;SDS011;4589;48.690;8.952;2023-07-29T12:59:04;2.30;;;2.10;;
9106;SDS011;4589;48.690;8.952;2023-07-29T13:01:30;2.33;;;1.97;;
9106;SDS011;4589;48.690;8.952;2023-07-29T13:03:55;5.73;;;2.03;;
9106;SDS011;4589;48.690;8.952;2023-07-29T13:06:21;2.40;;;1.90;;
9106;SDS011;4589;48.690;8.952;2023-07-29T13:08:47;2.57;;;2.37;;
9106;SDS011;4589;48.690;8.952;2023-07-29T13:11:16;2.10;;;1.90;;
9106;SDS011;4589;48.690;8.952;2023-07-29T13:13:42;2.10;;;1.90;;
9106;SDS011;4589;48.690;8.952;2023-07-29T13:16:08;2.23;;;2.03;;
9106;SDS011;4589;48.690;8.952;2023-07-29T13:18:34;2.10;;;1.87;;
9106;SDS011;4589;48.690;8.952;2023-07-29T13:21:00;2.00;;;1.90;;
9106;SDS011;4589;48.690;8.952;2023-07-29T13:23:26;1.70;;;1.60;;
9106;SDS011;4589;48.690;8.952;2023-07-29T13:25:52;1.83;;;1.73;;
9106;SDS011;4589;48.690;8.952;2023-07-29T13:28:17;1.87;;;1.67;;
9106;SDS011;4589;48.690;8.952;2023-07-29T13:30:44;2.20;;;2.00;;
9106;SDS011;4589;48.690;8.952;2023-07-29T13:33:10;4.40;;;1.93;;
9106;SDS011;4589;48.690;8.952;2023-07-29T13:35:36;2.27;;;2.03;;
9106;SDS011;4589;48.690;8.952;2023-07-29T13:38:01;3.20;;;2.50;;
9106;SDS011;4589;48.690;8.952;2023-07-29T13:40:28;3.10;;;2.47;;
9106;SDS011;4589;48.690;8.952;2023-07-29T13:42:53;2.20;;;2.00;;
9106;SDS011;4589;48.690;8.952;2023-07-29T13:45:20;2.13;;;1.93;;
9106;SDS011;4589;48.690;8.952;2023-07-29T13:47:46;10.53;;;2.20;;
9106;SDS011;4589;48.690;8.952;2023-07-29T13:50:11;2.07;;;1.87;;
9106;SDS011;4589;48.690;8.952;2023-07-29T13:52:37;2.70;;;2.40;;
9106;SDS011;4589;48.690;8.952;2023-07-29T13:55:03;2.10;;;1.90;;
9106;SDS011;4589;48.690;8.952;2023-07-29T13:57:30;2.20;;;2.00;;
9106;SDS011;4589;48.690;8.952;2023-07-29T13:59:56;2.13;;;1.87;;
9106;SDS011;4589;48.690;8.952;2023-07-29T14:02:21;2.13;;;1.90;;
9106;SDS011;4589;48.690;8.952;2023-07-29T14:04:47;2.20;;;2.00;;
9106;SDS011;4589;48.690;8.952;2023-07-29T14:07:12;2.83;;;2.10;;
9106;SDS011;4589;48.690;8.952;2023-07-29T14:09:38;2.20;;;2.00;;
9106;SDS011;4589;48.690;8.952;2023-07-29T14:12:04;1.60;;;1.50;;
9106;SDS011;4589;48.690;8.952;2023-07-29T14:14:30;2.23;;;2.03;;
9106;SDS011;4589;48.690;8.952;2023-07-29T14:16:56;2.07;;;1.83;;
9106;SDS011;4589;48.690;8.952;2023-07-29T14:19:22;3.20;;;2.10;;
9106;SDS011;4589;48.690;8.952;2023-07-29T14:21:48;2.20;;;2.00;;
9106;SDS011;4589;48.690;8.952;2023-07-29T14:24:14;3.00;;;2.37;;
9106;SDS011;4589;48.690;8.952;2023-07-29T14:26:40;2.20;;;2.00;;
9106;SDS011;4589;48.690;8.952;2023-07-29T14:29:06;2.37;;;2.17;;
9106;SDS011;4589;48.690;8.952;2023-07-29T14:31:32;2.23;;;2.03;;
9106;SDS011;4589;48.690;8.952;2023-07-29T14:33:57;2.17;;;1.87;;
9106;SDS011;4589;48.690;8.952;2023-07-29T14:36:24;2.10;;;1.90;;
9106;SDS011;4589;48.690;8.952;2023-07-29T14:38:50;2.27;;;2.07;;
9106;SDS011;4589;48.690;8.952;2023-07-29T14:41:15;2.40;;;1.50;;
9106;SDS011;4589;48.690;8.952;2023-07-29T14:43:41;2.60;;;2.13;;
9106;SDS011;4589;48.690;8.952;2023-07-29T14:46:07;1.93;;;1.73;;
9106;SDS011;4589;48.690;8.952;2023-07-29T14:48:33;2.33;;;2.13;;
9106;SDS011;4589;48.690;8.952;2023-07-29T14:50:59;1.97;;;1.83;;
9106;SDS011;4589;48.690;8.952;2023-07-29T14:53:24;3.50;;;1.97;;
9106;SDS011;4589;48.690;8.952;2023-07-29T14:55:50;2.07;;;1.90;;
9106;SDS011;4589;48.690;8.952;2023-07-29T14:58:16;2.63;;;2.03;;
9106;SDS011;4589;48.690;8.952;2023-07-29T15:00:42;2.47;;;2.27;;
9106;SDS011;4589;48.690;8.952;2023-07-29T15:03:07;2.73;;;2.30;;
9106;SDS011;4589;48.690;8.952;2023-07-29T15:05:33;3.03;;;2.50;;
9106;SDS011;4589;48.690;8.952;2023-07-29T15:07:58;4.30;;;2.50;;
9106;SDS011;4589;48.690;8.952;2023-07-29T15:10:24;3.33;;;2.20;;
9106;SDS011;4589;48.690;8.952;2023-07-29T15:12:50;2.23;;;2.03;;